This is the latest recevied weather packets stored in our database for station/object IW2OBX-10. If no packets are shown the sender has not sent any weather packets the latest 10 day(s).
| Time | Temp. | Humidity | Pressure | Rain* | Wind** | Luminosity | Snow |
|---|---|---|---|---|---|---|---|
| 1778338712 | 26.11° C | 30% | 1014.1 hPa | - | - | - | - |
| 1778337810 | 26.11° C | 31% | 1014.3 hPa | - | - | - | - |
| 1778336909 | 26.11° C | 30% | 1014.2 hPa | - | - | - | - |
| 1778336008 | 26.11° C | 31% | 1014.3 hPa | - | - | - | - |
| 1778335106 | 26.11° C | 32% | 1014.4 hPa | - | - | - | - |
| 1778334204 | 25.56° C | 32% | 1014.8 hPa | - | - | - | - |
| 1778333303 | 26.11° C | 32% | 1015 hPa | - | - | - | - |
| 1778332401 | 25.56° C | 32% | 1015 hPa | - | - | - | - |
| 1778331500 | 26.11° C | 34% | 1015.1 hPa | - | - | - | - |
| 1778330598 | 26.11° C | 34% | 1015 hPa | - | - | - | - |
| 1778329697 | 26.11° C | 35% | 1015.2 hPa | - | - | - | - |
| 1778328796 | 25° C | 35% | 1015.3 hPa | - | - | - | - |
| 1778327894 | 25.56° C | 34% | 1015.2 hPa | - | - | - | - |
| 1778326994 | 25.56° C | 34% | 1015.4 hPa | - | - | - | - |
| 1778326091 | 25° C | 33% | 1015.7 hPa | - | - | - | - |
| 1778325190 | 25° C | 36% | 1015.9 hPa | - | - | - | - |
| 1778324289 | 25.56° C | 35% | 1016 hPa | - | - | - | - |
| 1778323388 | 26.11° C | 34% | 1016.4 hPa | - | - | - | - |
| 1778322487 | 28.89° C | 29% | 1016.4 hPa | - | - | - | - |
| 1778321586 | 30.56° C | 25% | 1016.4 hPa | - | - | - | - |
| 1778320684 | 35.56° C | 22% | 1016.5 hPa | - | - | - | - |
| 1778319782 | 33.89° C | 24% | 1016.7 hPa | - | - | - | - |
| 1778318881 | 33.89° C | 24% | 1016.8 hPa | - | - | - | - |
| 1778317979 | 34.44° C | 24% | 1016.9 hPa | - | - | - | - |
| 1778317078 | 33.89° C | 25% | 1017.1 hPa | - | - | - | - |
* Rain since midnight (hover to see other rain measurements)
** Current wind speed in m/s (hover to see current wind gust speed)